Time;durP1;ratioP1;P1;durP2;ratioP2;P2;SDS_P1;SDS_P2;PMS_P1;PMS_P2;Temp;Humidity;BMP_temperature;BMP_pressure;BME280_temperature;BME280_humidity;BME280_pressure;Samples;Min_cycle;Max_cycle;Signal;HPM_P1;HPM_P2
2023/06/14 00:01:38;;;;;;;5.53;3.08;;;14.60;99.80;;;13.48;100.00;97214.97;4983484;28;20147;-77
2023/06/14 00:04:05;;;;;;;12.85;3.63;;;14.60;99.70;;;13.49;100.00;97211.47;4979632;28;20047;-78
2023/06/14 00:06:33;;;;;;;7.35;3.45;;;14.70;99.70;;;13.67;100.00;97206.91;4983913;28;20348;-78
2023/06/14 00:09:01;;;;;;;6.22;3.42;;;14.70;99.60;;;13.68;100.00;97203.34;4980388;28;20050;-77
2023/06/14 00:11:29;;;;;;;8.20;3.83;;;14.80;99.60;;;13.69;100.00;97200.66;4979540;28;20062;-78
2023/06/14 00:13:56;;;;;;;8.52;3.30;;;14.80;99.50;;;13.46;100.00;97198.63;4982006;28;20054;-77
2023/06/14 00:16:24;;;;;;;7.30;3.95;;;14.80;99.90;;;13.58;100.00;97195.25;4979293;28;20050;-77
2023/06/14 00:18:54;;;;;;;5.80;3.45;;;14.80;99.90;;;13.50;100.00;97205.31;4979544;28;20076;-77
2023/06/14 00:21:21;;;;;;;9.50;3.03;;;14.70;99.90;;;13.58;100.00;97203.06;4977798;28;20070;-77
2023/06/14 00:23:49;;;;;;;6.68;3.30;;;14.80;99.90;;;13.52;100.00;97201.66;4977775;28;20054;-77
2023/06/14 00:26:16;;;;;;;5.63;3.00;;;14.80;99.90;;;13.42;100.00;97197.94;5011609;28;20055;-78
2023/06/14 00:28:44;;;;;;;5.57;2.95;;;14.70;99.90;;;13.34;100.00;97194.94;4980396;28;20072;-77
2023/06/14 00:31:11;;;;;;;6.07;3.40;;;14.60;99.90;;;13.28;100.00;97195.34;4980831;28;20046;-77
2023/06/14 00:33:40;;;;;;;6.57;3.30;;;14.60;99.90;;;13.25;100.00;97190.25;4981817;28;20055;-77
2023/06/14 00:36:07;;;;;;;6.75;3.28;;;14.50;99.90;;;13.21;100.00;97199.22;4981816;28;20121;-78
2023/06/14 00:38:34;;;;;;;7.07;3.40;;;14.50;99.90;;;13.37;100.00;97194.78;4981180;28;20403;-77
2023/06/14 00:41:02;;;;;;;6.13;3.30;;;14.50;99.90;;;13.28;100.00;97197.94;4981345;28;20129;-78
2023/06/14 00:43:29;;;;;;;7.95;3.97;;;14.50;99.90;;;13.32;100.00;97194.19;4982005;28;20169;-77
2023/06/14 00:45:56;;;;;;;7.93;3.65;;;14.60;99.90;;;13.19;100.00;97194.91;4968692;28;20134;-77
2023/06/14 00:48:24;;;;;;;4.80;3.30;;;14.50;99.90;;;13.14;100.00;97201.34;4982110;28;20068;-77
2023/06/14 00:50:52;;;;;;;6.18;3.38;;;14.40;99.90;;;13.06;100.00;97201.78;4983655;28;20051;-77
2023/06/14 00:53:25;;;;;;;7.55;4.05;;;14.40;99.90;;;13.16;100.00;97199.50;4980688;28;20077;-77
2023/06/14 00:55:52;;;;;;;5.75;3.22;;;14.30;99.90;;;13.25;100.00;97206.75;4978388;28;20729;-78
2023/06/14 00:58:21;;;;;;;6.72;3.97;;;14.40;99.90;;;13.30;100.00;97203.91;4979091;28;22175;-77
2023/06/14 01:00:48;;;;;;;5.78;2.97;;;14.50;99.90;;;13.15;100.00;97205.59;4978132;28;20061;-78
2023/06/14 01:03:21;;;;;;;6.35;3.20;;;14.40;99.90;;;13.04;100.00;97206.22;4965022;28;20063;-77
2023/06/14 01:06:02;;;;;;;5.10;3.10;;;14.40;99.90;;;13.02;100.00;97212.47;4963263;28;20053;-77
2023/06/14 01:08:47;;;;;;;5.78;3.17;;;14.30;99.90;;;12.99;100.00;97213.47;4993722;28;20488;-77
2023/06/14 01:11:27;;;;;;;6.45;3.45;;;14.20;99.90;;;13.01;100.00;97221.22;4995049;28;20082;-77
2023/06/14 01:13:56;;;;;;;4.68;3.15;;;14.20;99.90;;;12.87;100.00;97212.44;5010803;28;20058;-77
2023/06/14 01:16:23;;;;;;;5.72;3.25;;;14.20;99.90;;;13.01;100.00;97223.81;4975991;28;20511;-77
2023/06/14 01:18:56;;;;;;;7.75;3.60;;;14.20;99.90;;;13.02;100.00;97222.88;4995299;28;20129;-78
2023/06/14 01:21:25;;;;;;;5.60;3.00;;;14.20;99.90;;;12.98;100.00;97228.28;4978192;28;20057;-77
2023/06/14 01:23:53;;;;;;;6.50;3.22;;;14.20;99.90;;;12.88;100.00;97221.91;4992301;28;20054;-77
2023/06/14 01:26:23;;;;;;;7.72;3.42;;;14.10;99.90;;;12.89;100.00;97225.38;4971967;28;20440;-77
2023/06/14 01:28:52;;;;;;;6.22;3.55;;;14.10;99.90;;;12.91;100.00;97226.97;4976591;28;20050;-77
2023/06/14 01:31:24;;;;;;;6.95;3.92;;;14.20;99.90;;;12.88;100.00;97223.69;4979954;28;20082;-77
2023/06/14 01:33:52;;;;;;;6.82;3.28;;;14.10;99.90;;;12.81;100.00;97225.78;4996135;28;20058;-77
2023/06/14 01:36:20;;;;;;;5.25;3.13;;;14.10;99.90;;;12.73;100.00;97234.06;4983767;28;20055;-77
2023/06/14 01:38:50;;;;;;;5.82;3.17;;;14.00;99.90;;;12.58;100.00;97232.31;5011364;28;20553;-77
2023/06/14 01:41:20;;;;;;;5.97;3.40;;;13.90;99.90;;;12.56;100.00;97224.56;4993941;28;20060;-77
2023/06/14 01:43:49;;;;;;;7.30;3.08;;;13.80;99.90;;;12.55;100.00;97230.72;4979129;28;20125;-77
2023/06/14 01:46:16;;;;;;;7.60;3.28;;;13.80;99.90;;;12.55;100.00;97230.72;4996895;28;20065;-78
2023/06/14 01:48:44;;;;;;;7.30;3.47;;;13.80;99.90;;;12.60;100.00;97225.25;4982956;28;20051;-77
2023/06/14 01:51:11;;;;;;;4.78;3.03;;;13.70;99.90;;;12.66;100.00;97230.13;4994678;28;20050;-77
2023/06/14 01:53:39;;;;;;;5.88;3.75;;;13.80;99.90;;;12.53;100.00;97232.56;5010316;28;20043;-77
2023/06/14 01:56:06;;;;;;;5.80;3.50;;;13.80;99.90;;;12.63;100.00;97229.44;4967927;28;20168;-77
2023/06/14 01:58:33;;;;;;;10.35;4.25;;;13.80;99.90;;;12.60;100.00;97229.63;5009878;28;20422;-78
2023/06/14 02:01:02;;;;;;;8.75;3.42;;;13.80;99.90;;;12.54;100.00;97230.81;4979212;28;20058;-77
2023/06/14 02:03:30;;;;;;;8.10;3.80;;;13.70;99.90;;;12.52;100.00;97230.03;4992930;28;20050;-77
2023/06/14 02:05:59;;;;;;;7.97;3.47;;;13.70;99.90;;;12.47;100.00;97230.31;4992756;28;20056;-77
2023/06/14 02:08:26;;;;;;;6.30;3.33;;;13.70;99.90;;;12.50;100.00;97232.75;4990712;28;20047;-77
2023/06/14 02:10:54;;;;;;;5.70;3.70;;;13.70;99.90;;;12.42;100.00;97232.31;4980394;28;20105;-77
2023/06/14 02:13:21;;;;;;;8.88;3.55;;;13.70;99.90;;;12.41;100.00;97238.47;4979559;28;20054;-76
2023/06/14 02:15:51;;;;;;;5.60;3.58;;;13.60;99.90;;;12.40;100.00;97235.94;4979095;28;20434;-77
2023/06/14 02:18:18;;;;;;;8.30;4.00;;;13.60;99.90;;;12.35;100.00;97239.63;4978496;28;20062;-77
2023/06/14 02:20:45;;;;;;;4.93;3.25;;;13.60;99.90;;;12.13;100.00;97241.72;4977035;28;20479;-78
2023/06/14 02:23:12;;;;;;;8.90;4.13;;;13.50;99.90;;;12.05;100.00;97236.13;4976190;28;20109;-77
2023/06/14 02:25:40;;;;;;;7.47;3.53;;;13.40;99.90;;;12.19;100.00;97240.56;4980143;28;20046;-77
2023/06/14 02:28:07;;;;;;;5.47;3.38;;;13.30;99.90;;;12.07;100.00;97245.50;4984585;28;20046;-77
2023/06/14 02:30:34;;;;;;;5.35;3.35;;;13.30;99.90;;;12.15;100.00;97242.47;4992480;28;20138;-77
2023/06/14 02:33:02;;;;;;;6.65;3.25;;;13.30;99.90;;;12.08;100.00;97236.78;4979148;28;20077;-77
2023/06/14 02:35:30;;;;;;;4.95;3.47;;;13.30;99.90;;;12.10;100.00;97240.13;4988989;28;20157;-77
2023/06/14 02:37:57;;;;;;;5.82;3.25;;;13.30;99.90;;;11.97;100.00;97241.72;4980230;28;20046;-77
2023/06/14 02:40:24;;;;;;;7.15;3.92;;;13.30;99.90;;;11.87;100.00;97246.56;4979604;28;20653;-78
2023/06/14 02:42:51;;;;;;;9.55;4.10;;;13.20;99.90;;;11.89;100.00;97246.50;4962391;28;20154;-77
2023/06/14 02:45:18;;;;;;;8.88;3.75;;;13.20;99.90;;;11.90;100.00;97245.56;4960295;28;20538;-77
2023/06/14 02:47:46;;;;;;;5.85;3.22;;;13.10;99.90;;;11.89;100.00;97249.09;4977545;28;20049;-77
2023/06/14 02:50:14;;;;;;;5.93;3.72;;;13.10;99.90;;;11.95;100.00;97245.31;4981691;28;20063;-78
2023/06/14 02:52:44;;;;;;;10.40;4.18;;;13.10;99.90;;;11.92;100.00;97248.94;4979782;28;20145;-77
2023/06/14 02:55:12;;;;;;;5.28;3.88;;;13.10;99.90;;;11.77;100.00;97250.56;4975611;28;20137;-77
2023/06/14 02:57:39;;;;;;;5.32;3.38;;;13.10;99.90;;;11.74;100.00;97248.09;4978367;28;20133;-76
2023/06/14 03:00:12;;;;;;;7.00;4.18;;;13.00;99.90;;;11.46;100.00;97261.69;5008123;28;20134;-76
2023/06/14 03:02:42;;;;;;;7.70;3.80;;;12.90;99.90;;;11.46;100.00;97259.94;4993430;28;20154;-76
2023/06/14 03:05:10;;;;;;;6.00;3.75;;;12.80;99.90;;;11.53;100.00;97260.47;4983750;28;20503;-76
2023/06/14 03:07:40;;;;;;;6.05;3.92;;;12.70;99.90;;;11.43;100.00;97254.06;4961518;28;20142;-76
2023/06/14 03:10:09;;;;;;;7.40;3.90;;;12.70;99.90;;;11.36;100.00;97263.94;4996416;28;20192;-76
2023/06/14 03:12:36;;;;;;;7.18;3.95;;;12.70;99.90;;;11.37;100.00;97255.22;4979616;28;20050;-76
2023/06/14 03:15:04;;;;;;;9.52;3.95;;;12.70;99.90;;;11.45;100.00;97263.47;5009726;28;20571;-76
2023/06/14 03:17:33;;;;;;;6.85;4.25;;;12.60;99.90;;;11.52;100.00;97264.00;4978104;28;20523;-76
2023/06/14 03:20:01;;;;;;;7.50;4.25;;;12.70;99.90;;;11.51;100.00;97262.28;4977865;28;20146;-76
2023/06/14 03:22:28;;;;;;;6.78;3.55;;;12.70;99.90;;;11.49;100.00;97265.00;4983235;28;20161;-76
2023/06/14 03:24:55;;;;;;;9.43;3.80;;;12.70;99.90;;;11.45;100.00;97257.44;4981501;28;20050;-76
2023/06/14 03:27:22;;;;;;;6.45;3.65;;;12.60;99.90;;;11.45;100.00;97260.88;4963203;28;20059;-76
2023/06/14 03:29:49;;;;;;;5.93;3.60;;;12.60;99.90;;;11.45;100.00;97270.44;4980484;28;20178;-75
2023/06/14 03:32:17;;;;;;;10.00;3.78;;;12.60;99.90;;;11.40;100.00;97260.25;4982866;28;20223;-76
2023/06/14 03:34:44;;;;;;;6.65;3.97;;;12.60;99.90;;;11.23;100.00;97273.25;5012030;28;20085;-77
2023/06/14 03:37:12;;;;;;;7.63;4.38;;;12.50;99.90;;;11.17;100.00;97270.97;4984163;28;20043;-76
2023/06/14 03:39:45;;;;;;;6.35;3.80;;;12.50;99.90;;;11.15;100.00;97267.59;4983385;28;20151;-76
2023/06/14 03:42:14;;;;;;;11.80;4.20;;;12.40;99.90;;;11.18;100.00;97276.09;4983667;28;20583;-76
2023/06/14 03:44:45;;;;;;;9.90;4.03;;;12.40;99.90;;;11.13;100.00;97283.28;4982532;28;20229;-76
2023/06/14 03:47:12;;;;;;;8.70;4.45;;;12.30;99.90;;;11.09;100.00;97287.78;4981769;28;20212;-77
2023/06/14 03:49:39;;;;;;;8.27;3.92;;;12.30;99.90;;;11.13;100.00;97283.28;4996830;28;20057;-78
2023/06/14 03:52:07;;;;;;;6.45;4.05;;;12.30;99.90;;;11.08;100.00;97283.50;4980110;28;20046;-75
2023/06/14 03:54:34;;;;;;;9.27;3.55;;;12.30;99.90;;;11.22;100.00;97285.41;4981754;28;20053;-75
2023/06/14 03:57:05;;;;;;;7.63;4.25;;;12.30;99.90;;;11.33;100.00;97282.25;4971389;28;20514;-74
2023/06/14 03:59:33;;;;;;;7.25;3.92;;;12.40;99.90;;;11.34;100.00;97288.31;4982810;28;20133;-76
2023/06/14 04:02:00;;;;;;;9.43;4.40;;;12.40;99.90;;;11.32;100.00;97288.38;5015711;28;20055;-76
2023/06/14 04:04:29;;;;;;;7.45;3.78;;;12.40;99.90;;;11.34;100.00;97294.34;4983813;28;20434;-76
2023/06/14 04:06:58;;;;;;;6.43;3.85;;;12.40;99.90;;;11.41;100.00;97293.13;5000463;28;20134;-76
2023/06/14 04:09:26;;;;;;;5.82;3.72;;;12.50;99.90;;;11.42;100.00;97293.97;4992760;28;20118;-76
2023/06/14 04:11:56;;;;;;;8.32;4.38;;;12.50;99.90;;;11.39;100.00;97300.16;4980841;28;20507;-76
2023/06/14 04:14:23;;;;;;;5.80;4.00;;;12.50;99.90;;;11.46;100.00;97300.69;4980616;28;20090;-75
2023/06/14 04:16:50;;;;;;;7.00;3.85;;;12.50;99.90;;;11.48;100.00;97301.44;4994598;28;20466;-75
2023/06/14 04:19:17;;;;;;;8.07;3.65;;;12.50;99.90;;;11.60;100.00;97307.78;4994109;28;20086;-76
2023/06/14 04:21:44;;;;;;;6.75;4.20;;;12.60;99.90;;;11.76;100.00;97307.84;4980488;28;20078;-76
2023/06/14 04:24:13;;;;;;;7.50;4.20;;;12.70;99.90;;;11.80;100.00;97309.38;5012926;28;20157;-76
2023/06/14 04:26:45;;;;;;;8.75;4.75;;;12.80;99.90;;;11.88;100.00;97309.81;4982516;28;20208;-76
2023/06/14 04:29:16;;;;;;;9.23;4.13;;;12.90;99.90;;;11.95;100.00;97312.94;4984901;28;20055;-76
2023/06/14 04:31:44;;;;;;;9.15;4.00;;;12.90;99.90;;;12.05;100.00;97319.34;4982842;28;20077;-76
2023/06/14 04:34:16;;;;;;;7.28;4.57;;;13.00;99.90;;;12.09;100.00;97316.50;4980523;28;20054;-75
2023/06/14 04:36:48;;;;;;;6.53;3.97;;;13.10;99.90;;;12.24;100.00;97319.22;4980043;28;20058;-75
2023/06/14 04:39:19;;;;;;;6.80;4.70;;;13.10;99.90;;;12.29;100.00;97317.19;4981084;28;20054;-77
2023/06/14 04:41:46;;;;;;;7.13;3.90;;;13.20;99.90;;;12.45;100.00;97319.81;4983461;28;20112;-75
2023/06/14 04:44:16;;;;;;;6.80;3.92;;;13.30;99.90;;;12.53;100.00;97317.66;4981751;28;20130;-76
2023/06/14 04:46:47;;;;;;;7.68;4.30;;;13.40;99.90;;;12.56;100.00;97317.47;4980929;28;20129;-76
2023/06/14 04:49:18;;;;;;;6.80;4.03;;;13.50;99.90;;;12.64;100.00;97325.72;4983453;28;21956;-76
2023/06/14 04:51:46;;;;;;;11.10;4.53;;;13.50;99.90;;;12.75;100.00;97323.38;4979698;28;20050;-76
2023/06/14 04:54:14;;;;;;;7.28;4.55;;;13.60;99.90;;;12.86;100.00;97327.94;4976904;28;20054;-76
2023/06/14 04:56:42;;;;;;;6.78;4.40;;;13.70;99.90;;;12.96;100.00;97325.69;4983065;28;20069;-76
2023/06/14 04:59:11;;;;;;;6.63;3.78;;;13.80;99.90;;;13.03;100.00;97329.63;4983695;28;20105;-77
2023/06/14 05:01:39;;;;;;;7.45;4.60;;;13.90;99.90;;;13.28;100.00;97338.69;5009278;28;20061;-76
2023/06/14 05:04:06;;;;;;;7.60;4.65;;;14.00;99.90;;;13.47;100.00;97335.84;4979492;28;20050;-76
2023/06/14 05:06:33;;;;;;;9.65;4.07;;;14.10;99.90;;;13.79;100.00;97329.56;4994668;28;20507;-76
2023/06/14 05:09:00;;;;;;;8.80;4.10;;;14.30;99.90;;;13.96;100.00;97330.38;4976778;28;20050;-76
2023/06/14 05:11:27;;;;;;;8.10;4.30;;;14.50;99.90;;;14.18;100.00;97332.50;4971025;28;20070;-76
2023/06/14 05:13:55;;;;;;;9.75;3.90;;;14.70;99.90;;;14.23;100.00;97327.81;4978882;28;20054;-76
2023/06/14 05:16:22;;;;;;;7.32;4.38;;;14.90;99.90;;;14.37;100.00;97327.84;4979405;28;20094;-76
2023/06/14 05:18:50;;;;;;;11.55;4.72;;;15.00;99.90;;;14.61;100.00;97320.25;4978400;28;20678;-76
2023/06/14 05:21:18;;;;;;;9.55;4.32;;;15.20;99.90;;;14.72;100.00;97326.59;4983522;28;20051;-76
2023/06/14 05:23:45;;;;;;;8.45;4.43;;;15.30;99.90;;;14.93;100.00;97329.59;4982087;28;20051;-76
2023/06/14 05:26:13;;;;;;;5.93;4.07;;;15.50;99.90;;;15.00;100.00;97321.25;4979296;28;20047;-76
2023/06/14 05:28:40;;;;;;;5.97;4.10;;;15.60;99.90;;;15.08;100.00;97325.19;4978815;28;20459;-76
2023/06/14 05:31:07;;;;;;;8.52;4.03;;;15.80;99.90;;;15.23;100.00;97321.53;4967868;28;20065;-77
2023/06/14 05:33:34;;;;;;;7.15;4.28;;;15.90;99.90;;;15.37;100.00;97321.50;4983883;28;20495;-76
2023/06/14 05:36:04;;;;;;;5.35;4.00;;;16.00;99.90;;;15.56;100.00;97321.09;4980820;28;20049;-76
2023/06/14 05:38:33;;;;;;;8.27;4.43;;;16.10;99.90;;;15.67;100.00;97320.38;4981214;28;20439;-76
2023/06/14 05:41:02;;;;;;;8.65;3.88;;;16.20;99.90;;;15.83;100.00;97317.59;4954497;28;20046;-76
2023/06/14 05:43:29;;;;;;;14.40;4.15;;;16.40;99.90;;;15.94;100.00;97322.09;4979399;28;20175;-76
2023/06/14 05:45:56;;;;;;;6.53;4.13;;;16.60;99.90;;;16.00;100.00;97321.69;4981720;28;20050;-76
2023/06/14 05:48:23;;;;;;;10.70;4.40;;;16.60;99.90;;;16.17;100.00;97323.97;4978644;28;20053;-76
2023/06/14 05:50:50;;;;;;;12.48;4.07;;;16.70;99.90;;;16.28;100.00;97323.22;4976332;28;20114;-76
2023/06/14 05:53:17;;;;;;;7.78;3.63;;;16.90;99.90;;;16.56;100.00;97323.88;4977084;28;20042;-77
2023/06/14 05:55:45;;;;;;;7.45;4.38;;;17.00;99.90;;;16.68;100.00;97326.50;5009017;28;20062;-77
2023/06/14 05:58:13;;;;;;;6.22;3.80;;;17.20;99.90;;;16.51;100.00;97321.59;4993777;28;20053;-76
2023/06/14 06:00:40;;;;;;;6.18;3.70;;;17.30;99.90;;;16.86;100.00;97324.38;4977995;28;20078;-76
2023/06/14 06:03:09;;;;;;;8.20;3.95;;;17.40;99.90;;;16.79;100.00;97328.38;4992347;28;20519;-77
2023/06/14 06:05:39;;;;;;;6.03;3.47;;;17.50;99.90;;;16.84;100.00;97322.81;5007440;28;20097;-77
2023/06/14 06:08:07;;;;;;;5.55;3.13;;;17.60;99.90;;;16.91;100.00;97324.03;4976107;28;20050;-76
2023/06/14 06:10:34;;;;;;;5.85;4.25;;;17.70;99.90;;;16.96;100.00;97329.78;4981735;28;20576;-76
2023/06/14 06:13:01;;;;;;;5.72;3.58;;;17.70;99.90;;;17.03;100.00;97331.00;4976764;28;20078;-76
2023/06/14 06:15:28;;;;;;;6.57;4.10;;;17.80;99.90;;;17.03;100.00;97331.00;4980463;28;20531;-76
2023/06/14 06:17:55;;;;;;;5.35;3.50;;;17.80;99.90;;;17.31;100.00;97335.09;4991153;28;20051;-76
2023/06/14 06:20:28;;;;;;;8.82;4.22;;;17.90;99.90;;;17.26;100.00;97337.19;4966149;28;20055;-76
2023/06/14 06:22:57;;;;;;;6.97;3.70;;;18.00;99.90;;;17.55;100.00;97336.81;4976869;28;20047;-77
2023/06/14 06:25:28;;;;;;;9.20;3.97;;;18.10;99.90;;;17.56;100.00;97343.72;4978207;28;20574;-76
2023/06/14 06:27:58;;;;;;;6.50;3.72;;;18.20;99.90;;;17.55;100.00;97335.03;4975534;28;20046;-76
2023/06/14 06:30:26;;;;;;;5.80;3.80;;;18.30;99.90;;;17.75;100.00;97348.47;4977432;28;20047;-77
2023/06/14 06:32:53;;;;;;;6.70;3.72;;;18.30;99.90;;;17.50;100.00;97345.03;4977483;28;20042;-76
2023/06/14 06:35:20;;;;;;;6.88;3.85;;;18.30;99.90;;;17.46;100.00;97343.59;5005778;28;20060;-76
2023/06/14 06:37:48;;;;;;;4.82;3.60;;;18.40;99.80;;;17.66;100.00;97344.72;4981951;28;20106;-76
2023/06/14 06:40:15;;;;;;;7.95;3.80;;;18.30;99.90;;;17.66;100.00;97354.41;4979904;28;20082;-76
2023/06/14 06:42:42;;;;;;;8.30;3.72;;;18.50;99.70;;;17.75;100.00;97353.72;4994881;28;20060;-77
2023/06/14 06:45:10;;;;;;;6.10;3.67;;;18.50;99.80;;;17.83;100.00;97356.59;4974503;28;20629;-76
2023/06/14 06:47:37;;;;;;;12.77;4.05;;;18.60;99.60;;;17.89;100.00;97357.94;4977497;28;20523;-76
2023/06/14 06:50:07;;;;;;;8.77;3.65;;;18.60;99.80;;;18.07;100.00;97353.91;4975694;28;20055;-77
2023/06/14 06:52:35;;;;;;;8.40;3.80;;;18.70;99.70;;;18.13;100.00;97361.34;4977324;28;20055;-76
2023/06/14 06:55:03;;;;;;;7.75;3.70;;;18.80;99.60;;;18.34;100.00;97361.47;4966677;28;20082;-77
2023/06/14 06:57:30;;;;;;;8.45;3.83;;;18.90;99.80;;;18.68;100.00;97368.47;5004423;28;20105;-75
2023/06/14 06:59:57;;;;;;;6.63;3.17;;;19.10;99.20;;;18.45;100.00;97368.53;4979687;28;20073;-78
2023/06/14 07:02:25;;;;;;;8.45;3.40;;;19.30;98.30;;;18.60;100.00;97371.72;4993400;28;20059;-77
2023/06/14 07:04:52;;;;;;;7.22;3.70;;;19.30;98.40;;;18.62;100.00;97377.69;4998959;28;20046;-76
2023/06/14 07:07:19;;;;;;;6.07;3.50;;;19.40;97.90;;;18.47;100.00;97369.22;4979792;28;20136;-77
2023/06/14 07:09:47;;;;;;;10.52;4.00;;;19.50;97.30;;;18.59;100.00;97372.69;4976993;28;20102;-77
2023/06/14 07:12:15;;;;;;;6.82;3.55;;;19.40;97.10;;;18.67;100.00;97367.66;4960875;28;20066;-77
2023/06/14 07:14:42;;;;;;;8.93;3.75;;;19.40;97.20;;;18.52;100.00;97379.38;5007949;28;20450;-77
2023/06/14 07:17:09;;;;;;;8.55;3.15;;;19.50;97.10;;;18.98;100.00;97378.41;4978025;28;20054;-77
2023/06/14 07:19:36;;;;;;;5.25;3.13;;;19.50;97.30;;;19.43;100.00;97375.63;4972256;28;20086;-77
2023/06/14 07:22:04;;;;;;;5.90;3.28;;;19.70;97.40;;;19.35;100.00;97383.34;4976178;28;20049;-77
2023/06/14 07:24:32;;;;;;;7.32;3.63;;;19.90;96.80;;;19.03;100.00;97381.50;4977320;28;20050;-76
2023/06/14 07:27:01;;;;;;;11.90;3.38;;;20.00;95.90;;;19.18;100.00;97382.91;4976474;28;20101;-77
2023/06/14 07:29:28;;;;;;;7.95;3.50;;;20.00;95.80;;;19.12;100.00;97388.66;4975776;28;20050;-78
2023/06/14 07:31:55;;;;;;;6.55;3.20;;;20.00;95.80;;;19.31;100.00;97385.38;4980671;28;20042;-77
2023/06/14 07:34:22;;;;;;;6.80;3.33;;;20.00;95.60;;;19.25;100.00;97388.53;5007965;28;20104;-77
2023/06/14 07:36:49;;;;;;;9.07;3.10;;;20.00;95.10;;;19.24;100.00;97389.47;4966017;28;20471;-77
2023/06/14 07:39:16;;;;;;;12.52;3.75;;;20.10;95.00;;;19.39;100.00;97382.13;4980560;28;20100;-76
2023/06/14 07:41:43;;;;;;;8.32;3.22;;;20.10;94.90;;;19.52;100.00;97382.78;4973684;28;20102;-77
2023/06/14 07:44:12;;;;;;;6.15;3.05;;;20.20;94.60;;;19.76;100.00;97381.75;4978150;28;20054;-77
2023/06/14 07:46:40;;;;;;;7.35;2.78;;;20.40;94.50;;;19.79;100.00;97384.13;4991294;28;20139;-76
2023/06/14 07:49:07;;;;;;;7.47;3.03;;;20.40;95.20;;;19.91;100.00;97388.41;4981348;28;20042;-77
2023/06/14 07:51:34;;;;;;;7.57;3.58;;;20.50;94.80;;;19.97;100.00;97381.75;4977890;28;20148;-77
2023/06/14 07:54:03;;;;;;;5.93;3.00;;;20.70;94.20;;;20.05;100.00;97385.44;4982938;28;20048;-76
2023/06/14 07:56:30;;;;;;;6.78;3.00;;;20.90;93.90;;;20.02;100.00;97383.03;4977983;28;20133;-77
2023/06/14 07:58:57;;;;;;;6.28;3.20;;;21.00;93.50;;;20.11;100.00;97394.59;4977143;28;20142;-76
2023/06/14 08:01:25;;;;;;;7.95;3.42;;;21.00;93.50;;;20.20;100.00;97382.44;4976959;28;20578;-77
2023/06/14 08:03:52;;;;;;;8.88;3.05;;;21.00;93.60;;;20.28;100.00;97387.91;4977702;28;20053;-77
2023/06/14 08:06:20;;;;;;;6.57;3.33;;;21.00;93.40;;;20.16;100.00;97386.31;4977169;28;20050;-76
2023/06/14 08:08:47;;;;;;;4.65;2.67;;;21.10;93.20;;;20.33;100.00;97376.97;4977344;28;20053;-76
2023/06/14 08:11:15;;;;;;;6.75;2.85;;;21.10;93.20;;;20.52;100.00;97377.06;4974000;28;20431;-76
2023/06/14 08:13:42;;;;;;;11.57;3.42;;;21.20;93.40;;;20.44;100.00;97380.38;4988881;28;20074;-77
2023/06/14 08:16:10;;;;;;;11.60;4.18;;;21.30;92.90;;;20.51;100.00;97370.13;4978543;28;20540;-77
2023/06/14 08:18:37;;;;;;;4.57;2.95;;;21.30;92.80;;;20.77;100.00;97380.25;4998218;28;20047;-79
2023/06/14 08:21:04;;;;;;;8.98;3.60;;;21.40;92.90;;;20.81;100.00;97379.84;5012973;28;20057;-77
2023/06/14 08:23:32;;;;;;;5.95;2.63;;;21.50;92.70;;;20.59;100.00;97374.75;4980198;28;20459;-77
2023/06/14 08:26:01;;;;;;;9.60;3.28;;;21.60;92.10;;;20.43;100.00;97383.13;4983329;28;20046;-77
2023/06/14 08:28:28;;;;;;;10.45;3.40;;;21.50;92.20;;;20.73;100.00;97381.47;4981959;28;20054;-77
2023/06/14 08:30:55;;;;;;;7.43;3.38;;;21.40;93.00;;;20.81;100.00;97379.84;4985110;28;20073;-77
2023/06/14 08:33:23;;;;;;;12.07;3.40;;;21.50;92.40;;;21.64;100.00;97374.28;4964977;28;20073;-77
2023/06/14 08:35:51;;;;;;;9.93;3.30;;;21.80;92.90;;;21.02;100.00;97371.00;4982794;28;20058;-78
2023/06/14 08:38:18;;;;;;;8.43;3.15;;;22.00;91.60;;;21.51;100.00;97372.75;5010197;28;20055;-78
2023/06/14 08:40:51;;;;;;;9.35;3.28;;;22.00;92.10;;;22.07;100.00;97381.72;4979615;28;20077;-77
2023/06/14 08:43:18;;;;;;;11.27;3.25;;;22.10;92.00;;;22.26;100.00;97380.06;4983606;28;20062;-78
2023/06/14 08:45:48;;;;;;;5.85;3.33;;;22.20;91.50;;;21.90;100.00;97378.03;4983328;28;20574;-77
2023/06/14 08:48:17;;;;;;;5.68;2.58;;;22.40;91.00;;;21.99;100.00;97380.81;4980791;28;20152;-77
2023/06/14 08:50:46;;;;;;;7.22;3.10;;;22.50;90.70;;;22.14;100.00;97387.28;4979056;28;20085;-78
2023/06/14 08:53:20;;;;;;;13.85;2.75;;;22.60;90.60;;;22.53;100.00;97381.91;4981333;28;20199;-77
2023/06/14 08:55:47;;;;;;;10.25;3.67;;;22.60;90.60;;;23.00;100.00;97387.16;4992110;28;20731;-77
2023/06/14 08:58:15;;;;;;;7.10;2.80;;;23.00;90.10;;;23.41;100.00;97386.78;4978447;28;20086;-77
2023/06/14 09:00:42;;;;;;;9.73;3.25;;;23.30;89.60;;;23.23;100.00;97379.63;4982717;28;20221;-77
2023/06/14 09:03:13;;;;;;;5.70;2.75;;;23.70;87.20;;;24.04;100.00;97378.72;4981919;28;20050;-77
2023/06/14 09:05:41;;;;;;;6.13;2.42;;;24.10;87.70;;;24.03;100.00;97376.22;4983048;28;20105;-78
2023/06/14 09:08:09;;;;;;;12.13;2.35;;;24.60;85.70;;;23.62;100.00;97391.75;4999237;28;20057;-77
2023/06/14 09:10:37;;;;;;;4.95;2.22;;;24.90;83.90;;;23.52;97.27;97383.91;4963410;28;20105;-77
2023/06/14 09:13:06;;;;;;;9.13;3.08;;;25.20;81.80;;;24.32;96.46;97386.53;4981684;28;20046;-77
2023/06/14 09:15:35;;;;;;;6.15;2.70;;;25.50;82.50;;;23.43;91.79;97392.75;4976608;28;20519;-77
2023/06/14 09:18:03;;;;;;;6.25;2.33;;;25.60;78.40;;;23.78;92.42;97386.63;4979438;28;20469;-77
2023/06/14 09:20:32;;;;;;;4.47;2.10;;;25.60;78.70;;;23.99;90.91;97381.84;4980065;28;20054;-77
2023/06/14 09:23:02;;;;;;;7.15;2.22;;;25.80;78.60;;;24.50;90.59;97375.91;4983090;28;20050;-78
2023/06/14 09:25:29;;;;;;;13.45;2.38;;;26.10;78.50;;;23.60;88.76;97378.66;4986434;28;20089;-77
2023/06/14 09:28:10;;;;;;;5.55;2.08;;;26.20;76.20;;;24.20;88.46;97388.63;4978330;28;20055;-78
2023/06/14 09:30:43;;;;;;;4.50;1.80;;;26.10;76.40;;;24.16;87.24;97388.09;5009231;28;20141;-78
2023/06/14 09:33:10;;;;;;;5.60;2.13;;;26.60;75.60;;;23.80;88.64;97390.78;4994719;28;20112;-78
2023/06/14 09:35:39;;;;;;;9.77;2.38;;;27.00;75.30;;;24.83;87.92;97395.44;4993103;28;20590;-79
2023/06/14 09:38:06;;;;;;;11.48;2.45;;;26.80;76.20;;;24.87;86.78;97391.47;4995241;28;20046;-78
2023/06/14 09:40:37;;;;;;;6.55;2.15;;;27.00;75.00;;;25.50;84.53;97390.19;4981446;28;20057;-77
2023/06/14 09:43:10;;;;;;;7.15;2.47;;;27.40;74.60;;;25.09;83.93;97394.53;4979019;28;20322;-78
2023/06/14 09:45:45;;;;;;;7.68;2.20;;;27.50;73.80;;;26.09;83.66;97398.03;4996498;28;20061;-79
2023/06/14 09:48:17;;;;;;;7.82;2.33;;;27.50;74.30;;;26.00;80.99;97391.91;4993895;28;20047;-78
2023/06/14 09:50:50;;;;;;;3.83;2.00;;;27.80;73.40;;;26.53;79.05;97396.81;4965436;28;20051;-79
2023/06/14 09:53:23;;;;;;;5.15;1.77;;;28.00;72.80;;;26.15;76.46;97407.19;4984038;28;20144;-77
2023/06/14 09:55:52;;;;;;;9.80;2.05;;;28.20;71.60;;;25.72;77.75;97409.16;4963386;28;20058;-78
2023/06/14 09:58:23;;;;;;;6.32;1.48;;;27.90;71.40;;;25.61;77.16;97413.81;4998871;28;20652;-78
2023/06/14 10:00:52;;;;;;;11.48;2.15;;;27.40;71.00;;;25.07;78.39;97413.31;4978367;28;20054;-78
2023/06/14 10:03:26;;;;;;;6.28;2.03;;;27.20;70.70;;;25.25;75.59;97403.44;4986492;28;20065;-78
2023/06/14 10:06:02;;;;;;;5.18;1.85;;;27.30;70.40;;;25.12;74.88;97408.34;4976289;28;20452;-77
2023/06/14 10:08:33;;;;;;;7.60;1.83;;;27.00;70.30;;;25.40;71.06;97411.59;4987823;28;20061;-78
2023/06/14 10:11:01;;;;;;;6.82;1.67;;;27.10;68.90;;;26.23;71.13;97409.84;4981932;28;20130;-75
2023/06/14 10:13:32;;;;;;;5.28;1.80;;;27.20;69.70;;;26.06;72.03;97403.69;4979547;28;20100;-76
2023/06/14 10:16:17;;;;;;;3.97;1.67;;;27.80;69.40;;;25.74;69.65;97409.81;4983263;28;20126;-76
2023/06/14 10:19:08;;;;;;;4.18;2.03;;;27.70;67.90;;;26.03;69.70;97406.69;4983400;28;20141;-77